Terminal Aerodrome Forecast
Issued by NWS Wilmington, OH

Current Version | Previous Version | Text Only | Print | Product List | Glossary Off
Versions: 1 2 3 4 5 6 7 8 9 10 11 12 13 14 15 16

000
FTUS41 KILN 032300
TAFCMH
TAF
KCMH 032327Z 0400/0424 21008KT P6SM SCT080
     FM040200 17005KT P6SM SCT150
     FM041500 22014G22KT P6SM SCT050 BKN150
     FM042200 22010KT P6SM BKN090=

USA.gov is the U.S. government's official web portal to all federal, state and local government web resources and services.